createdAt,value
2022-08-05T00:04:19.168Z,66.18
2022-08-05T00:09:41.087Z,66.50
2022-08-05T00:15:54.404Z,67.50
2022-08-05T00:20:50.471Z,67.87
2022-08-05T00:26:12.804Z,67.87
2022-08-05T00:31:52.916Z,68.59
2022-08-05T00:37:16.489Z,69.14
2022-08-05T00:42:39.126Z,69.34
2022-08-05T00:48:05.798Z,69.98
2022-08-05T00:54:01.188Z,70.35
2022-08-05T00:59:09.815Z,70.89
2022-08-05T01:04:31.681Z,71.08
2022-08-05T01:09:55.497Z,71.32
2022-08-05T01:15:36.232Z,71.68
2022-08-05T01:21:11.964Z,72.10
2022-08-05T01:26:49.988Z,72.51
2022-08-05T01:32:18.541Z,73.28
2022-08-05T01:37:50.348Z,73.45
2022-08-05T01:43:22.441Z,74.01
2022-08-05T01:48:49.762Z,73.78
2022-08-05T01:54:14.118Z,73.95
2022-08-05T01:59:42.201Z,74.58
2022-08-05T02:05:12.350Z,74.94
2022-08-05T02:10:43.604Z,75.68
2022-08-05T02:16:16.404Z,76.23
2022-08-05T02:21:49.225Z,76.59
2022-08-05T02:27:12.696Z,76.61
2022-08-05T02:32:36.560Z,76.73
2022-08-05T02:38:02.563Z,76.91
2022-08-05T02:43:26.353Z,76.96
2022-08-05T02:48:49.107Z,77.62
2022-08-05T02:54:34.856Z,77.53
2022-08-05T02:59:56.807Z,77.75
2022-08-05T03:05:21.622Z,77.58
2022-08-05T03:11:57.640Z,77.78
2022-08-05T03:16:43.405Z,77.84
2022-08-05T03:22:16.570Z,78.17
2022-08-05T03:27:59.320Z,76.71
2022-08-05T03:33:22.782Z,74.13
2022-08-05T03:38:54.019Z,73.31
2022-08-05T03:44:19.793Z,71.68
2022-08-05T03:49:51.336Z,68.85
2022-08-05T03:56:04.810Z,66.88
2022-08-05T04:01:06.992Z,63.60
2022-08-05T04:06:29.702Z,62.69
2022-08-05T04:11:52.558Z,58.76
2022-08-05T04:17:15.100Z,56.56
2022-08-05T04:22:36.907Z,54.65
2022-08-05T04:28:00.623Z,55.48
2022-08-05T04:34:19.273Z,51.46
2022-08-05T04:39:07.848Z,50.53
2022-08-05T04:44:30.698Z,48.89
2022-08-05T04:50:02.521Z,51.04
2022-08-05T04:56:14.587Z,50.65
2022-08-05T05:01:14.678Z,48.34
2022-08-05T05:06:57.645Z,49.57
2022-08-05T05:12:19.638Z,48.99
2022-08-05T05:17:56.432Z,49.84
2022-08-05T05:23:19.890Z,54.32
2022-08-05T05:28:42.793Z,50.06
2022-08-05T05:34:07.019Z,47.23
2022-08-05T05:39:31.584Z,48.40
2022-08-05T05:44:59.528Z,44.94
2022-08-05T05:50:21.386Z,46.35
2022-08-05T05:55:51.673Z,41.56
2022-08-05T06:01:23.472Z,41.37
2022-08-05T06:06:47.788Z,40.35
2022-08-05T06:12:12.163Z,39.94
2022-08-05T06:17:53.125Z,37.13
2022-08-05T06:23:15.556Z,37.60
2022-08-05T06:28:37.366Z,35.84
2022-08-05T06:34:06.161Z,34.17
2022-08-05T06:39:30.053Z,33.87
2022-08-05T06:44:53.110Z,33.95
2022-08-05T06:50:17.336Z,32.47
2022-08-05T06:55:42.001Z,31.47
2022-08-05T07:01:06.190Z,29.48
2022-08-05T07:06:28.511Z,29.17
2022-08-05T07:11:51.434Z,27.58
2022-08-05T07:23:29.714Z,27.45
2022-08-05T07:28:52.088Z,27.59
2022-08-05T07:34:15.669Z,27.52
2022-08-05T07:40:04.464Z,28.15
2022-08-05T07:45:31.318Z,25.11
2022-08-05T07:51:23.629Z,25.14
2022-08-05T07:57:02.021Z,25.51
2022-08-05T08:03:13.774Z,23.90
2022-08-05T08:08:16.872Z,24.13
2022-08-05T08:13:42.957Z,23.68
2022-08-05T08:20:20.958Z,23.86
2022-08-05T08:25:16.112Z,25.07
2022-08-05T08:30:47.921Z,23.99
2022-08-05T08:36:38.990Z,24.81
2022-08-05T08:41:59.637Z,24.49
2022-08-05T08:48:06.980Z,25.13
2022-08-05T08:53:12.578Z,23.97
2022-08-05T08:58:44.036Z,23.82
2022-08-05T09:04:10.809Z,23.09
2022-08-05T09:09:38.009Z,23.97
2022-08-05T09:15:06.257Z,24.72
2022-08-05T09:20:37.318Z,26.51
2022-08-05T09:26:20.474Z,29.31
2022-08-05T09:32:41.416Z,31.01
2022-08-05T09:38:17.266Z,31.22
2022-08-05T09:43:26.147Z,32.78
2022-08-05T09:49:07.264Z,34.01
2022-08-05T09:54:30.746Z,33.42
2022-08-05T09:59:57.964Z,34.54
2022-08-05T10:05:23.959Z,35.47
2022-08-05T10:10:54.682Z,34.70
2022-08-05T10:16:37.915Z,35.02
2022-08-05T10:22:04.107Z,35.46
2022-08-05T10:28:12.769Z,36.22
2022-08-05T10:33:14.646Z,36.57
2022-08-05T10:38:39.098Z,38.59
2022-08-05T10:44:11.346Z,38.23
2022-08-05T10:49:48.730Z,38.79
2022-08-05T10:55:15.992Z,37.46
2022-08-05T11:00:46.246Z,37.11
2022-08-05T11:06:15.651Z,37.75
2022-08-05T11:11:44.267Z,38.64
2022-08-05T11:17:57.745Z,37.89
2022-08-05T11:24:02.385Z,38.52
2022-08-05T11:29:39.003Z,38.19
2022-08-05T11:35:00.898Z,38.03
2022-08-05T11:41:00.853Z,38.23
2022-08-05T11:46:33.407Z,37.15
2022-08-05T11:51:57.314Z,37.38
2022-08-05T11:57:24.966Z,37.90
2022-08-05T12:02:47.620Z,38.81
2022-08-05T12:08:11.703Z,38.73
2022-08-05T12:13:49.472Z,38.43
2022-08-05T12:20:27.152Z,38.08
2022-08-05T12:24:54.370Z,38.25
2022-08-05T12:30:16.153Z,38.81
2022-08-05T12:35:39.908Z,38.80
2022-08-05T12:41:13.230Z,38.30
2022-08-05T12:46:36.827Z,38.74
2022-08-05T12:52:14.425Z,39.16
2022-08-05T12:58:49.001Z,40.02
2022-08-05T13:03:24.406Z,39.74
2022-08-05T13:08:53.929Z,39.38
2022-08-05T13:14:24.801Z,38.72
2022-08-05T13:20:09.453Z,39.26
2022-08-05T13:25:52.192Z,38.91
2022-08-05T13:31:15.026Z,39.01
2022-08-05T13:36:37.642Z,39.03
2022-08-05T13:42:01.259Z,38.35
2022-08-05T13:47:34.614Z,38.47
2022-08-05T13:52:57.244Z,39.54
2022-08-05T13:58:23.267Z,39.25
2022-08-05T14:03:52.853Z,38.82
2022-08-05T14:09:14.697Z,38.90
2022-08-05T14:14:38.078Z,38.57
2022-08-05T14:20:04.736Z,38.34
2022-08-05T14:25:30.296Z,38.49
2022-08-05T14:30:52.283Z,38.04
2022-08-05T14:36:15.444Z,38.45
2022-08-05T14:41:37.634Z,37.71
2022-08-05T14:47:10.242Z,37.25
2022-08-05T14:52:51.880Z,37.20
2022-08-05T14:58:14.200Z,37.50
2022-08-05T15:03:39.086Z,37.54
2022-08-05T15:09:03.607Z,37.65
2022-08-05T15:14:35.794Z,38.24
2022-08-05T15:20:04.805Z,37.53
2022-08-05T15:25:40.858Z,37.46
2022-08-05T15:31:08.469Z,37.75
2022-08-05T15:36:30.789Z,38.07
2022-08-05T15:41:58.201Z,37.38
2022-08-05T15:47:22.247Z,37.51
2022-08-05T15:52:54.659Z,38.08
2022-08-05T15:58:17.440Z,38.06
2022-08-05T16:03:42.700Z,38.06
2022-08-05T16:09:04.553Z,38.13
2022-08-05T16:14:26.396Z,38.43
2022-08-05T16:20:04.904Z,38.36
2022-08-05T16:25:33.915Z,38.13
2022-08-05T16:30:56.521Z,38.53
2022-08-05T16:36:20.405Z,38.16
2022-08-05T16:42:27.627Z,38.20
2022-08-05T16:47:36.016Z,37.88
2022-08-05T16:52:58.307Z,37.24
2022-08-05T16:58:23.494Z,37.99
2022-08-05T17:03:47.197Z,38.12
2022-08-05T17:09:10.336Z,38.36
2022-08-05T17:14:36.942Z,38.75
2022-08-05T17:20:07.391Z,39.33
2022-08-05T17:25:39.645Z,39.62
2022-08-05T17:31:08.477Z,39.54
2022-08-05T17:36:44.012Z,39.65
2022-08-05T17:42:18.348Z,39.75
2022-08-05T17:47:42.344Z,39.99
2022-08-05T17:53:05.529Z,40.09
2022-08-05T17:58:32.418Z,40.60
2022-08-05T18:04:04.207Z,41.30
2022-08-05T18:09:28.436Z,41.51
2022-08-05T18:15:09.936Z,42.02
2022-08-05T18:20:32.612Z,42.59
2022-08-05T18:25:57.746Z,42.81
2022-08-05T18:31:21.642Z,42.95
2022-08-05T18:36:43.616Z,43.16
2022-08-05T18:42:10.838Z,43.26
2022-08-05T18:47:33.944Z,44.55
2022-08-05T18:52:55.817Z,45.55
2022-08-05T18:58:17.633Z,45.93
2022-08-05T19:03:53.482Z,46.90
2022-08-05T19:09:17.637Z,47.94
2022-08-05T19:15:00.741Z,48.42
2022-08-05T19:20:21.246Z,49.19
2022-08-05T19:25:45.501Z,49.65
2022-08-05T19:31:07.657Z,49.84
2022-08-05T19:36:29.662Z,50.69
2022-08-05T19:42:07.351Z,50.63
2022-08-05T19:47:30.965Z,51.45
2022-08-05T19:52:52.762Z,51.24
2022-08-05T19:58:28.367Z,51.75
2022-08-05T20:03:50.853Z,52.24
2022-08-05T20:09:14.338Z,52.73
2022-08-05T20:14:36.338Z,53.67
2022-08-05T20:19:58.230Z,53.90
2022-08-05T20:25:20.135Z,53.66
2022-08-05T20:30:45.147Z,54.42
2022-08-05T20:36:10.013Z,55.01
2022-08-05T20:41:44.222Z,55.97
2022-08-05T20:47:07.576Z,56.85
2022-08-05T20:52:30.415Z,57.10
2022-08-05T20:57:53.881Z,57.67
2022-08-05T21:03:20.518Z,58.21
2022-08-05T21:08:43.979Z,59.37
2022-08-05T21:14:06.067Z,59.10
2022-08-05T21:19:28.784Z,59.45
2022-08-05T21:25:08.717Z,60.22
2022-08-05T21:30:31.755Z,61.11
2022-08-05T21:35:58.606Z,61.76
2022-08-05T21:41:20.993Z,62.34
2022-08-05T21:46:42.857Z,62.98
2022-08-05T21:52:16.292Z,63.46
2022-08-05T21:57:45.138Z,63.86
2022-08-05T22:03:09.928Z,64.36
2022-08-05T22:08:32.403Z,64.89
2022-08-05T22:14:34.516Z,64.46
2022-08-05T22:20:00.540Z,65.15
2022-08-05T22:25:23.961Z,65.28
2022-08-05T22:30:56.231Z,65.65
2022-08-05T22:36:24.190Z,66.05
2022-08-05T22:42:10.386Z,65.91
2022-08-05T22:47:29.613Z,66.29
2022-08-05T22:52:53.772Z,65.99
2022-08-05T22:58:15.598Z,66.67
2022-08-05T23:03:59.085Z,66.57
2022-08-05T23:09:27.882Z,66.47
2022-08-05T23:15:08.840Z,66.71
2022-08-05T23:20:33.852Z,67.47
2022-08-05T23:25:59.514Z,67.50
2022-08-05T23:31:21.684Z,67.88
2022-08-05T23:36:45.029Z,68.23
2022-08-05T23:42:08.668Z,69.09
2022-08-05T23:47:36.479Z,69.70
2022-08-05T23:53:22.843Z,69.77
2022-08-05T23:58:44.920Z,70.26
